sensor_id;sensor_type;location;lat;lon;timestamp;P1;durP1;ratioP1;P2;durP2;ratioP2
2119;SDS011;1066;52.540;13.420;2022-09-02T00:00:42;1.73;;;1.47;;
2119;SDS011;1066;52.540;13.420;2022-09-02T00:03:08;2.53;;;2.07;;
2119;SDS011;1066;52.540;13.420;2022-09-02T00:05:34;1.77;;;1.50;;
2119;SDS011;1066;52.540;13.420;2022-09-02T00:07:59;2.13;;;1.63;;
2119;SDS011;1066;52.540;13.420;2022-09-02T00:10:24;1.57;;;1.47;;
2119;SDS011;1066;52.540;13.420;2022-09-02T00:12:50;2.33;;;1.70;;
2119;SDS011;1066;52.540;13.420;2022-09-02T00:15:15;2.17;;;1.97;;
2119;SDS011;1066;52.540;13.420;2022-09-02T00:17:41;3.67;;;1.87;;
2119;SDS011;1066;52.540;13.420;2022-09-02T00:20:06;2.03;;;1.63;;
2119;SDS011;1066;52.540;13.420;2022-09-02T00:22:32;2.50;;;2.30;;
2119;SDS011;1066;52.540;13.420;2022-09-02T00:24:57;2.20;;;1.80;;
2119;SDS011;1066;52.540;13.420;2022-09-02T00:27:23;1.93;;;1.73;;
2119;SDS011;1066;52.540;13.420;2022-09-02T00:29:49;1.87;;;1.70;;
2119;SDS011;1066;52.540;13.420;2022-09-02T00:32:15;1.83;;;1.73;;
2119;SDS011;1066;52.540;13.420;2022-09-02T00:34:41;2.10;;;1.70;;
2119;SDS011;1066;52.540;13.420;2022-09-02T00:37:06;3.50;;;2.27;;
2119;SDS011;1066;52.540;13.420;2022-09-02T00:39:31;2.25;;;1.70;;
2119;SDS011;1066;52.540;13.420;2022-09-02T00:41:57;1.80;;;1.60;;
2119;SDS011;1066;52.540;13.420;2022-09-02T00:44:22;1.43;;;1.33;;
2119;SDS011;1066;52.540;13.420;2022-09-02T00:46:48;2.40;;;1.67;;
2119;SDS011;1066;52.540;13.420;2022-09-02T00:49:32;1.87;;;1.50;;
2119;SDS011;1066;52.540;13.420;2022-09-02T00:52:07;2.10;;;1.90;;
2119;SDS011;1066;52.540;13.420;2022-09-02T00:54:55;2.03;;;1.60;;
2119;SDS011;1066;52.540;13.420;2022-09-02T00:57:23;1.97;;;1.60;;
2119;SDS011;1066;52.540;13.420;2022-09-02T01:02:28;3.47;;;1.57;;
2119;SDS011;1066;52.540;13.420;2022-09-02T01:04:56;3.70;;;1.67;;
2119;SDS011;1066;52.540;13.420;2022-09-02T01:07:26;2.20;;;1.57;;
2119;SDS011;1066;52.540;13.420;2022-09-02T01:09:55;2.40;;;1.50;;
2119;SDS011;1066;52.540;13.420;2022-09-02T01:12:21;1.53;;;1.40;;
2119;SDS011;1066;52.540;13.420;2022-09-02T01:14:48;1.70;;;1.60;;
2119;SDS011;1066;52.540;13.420;2022-09-02T01:17:13;1.70;;;1.60;;
2119;SDS011;1066;52.540;13.420;2022-09-02T01:19:43;2.47;;;1.57;;
2119;SDS011;1066;52.540;13.420;2022-09-02T01:22:20;2.10;;;1.50;;
2119;SDS011;1066;52.540;13.420;2022-09-02T01:24:48;2.50;;;1.77;;
2119;SDS011;1066;52.540;13.420;2022-09-02T01:27:17;1.97;;;1.77;;
2119;SDS011;1066;52.540;13.420;2022-09-02T01:29:44;2.00;;;1.47;;
2119;SDS011;1066;52.540;13.420;2022-09-02T01:32:10;3.20;;;2.63;;
2119;SDS011;1066;52.540;13.420;2022-09-02T01:34:36;1.90;;;1.40;;
2119;SDS011;1066;52.540;13.420;2022-09-02T01:37:02;1.43;;;1.33;;
2119;SDS011;1066;52.540;13.420;2022-09-02T01:39:27;2.00;;;1.63;;
2119;SDS011;1066;52.540;13.420;2022-09-02T01:41:52;2.87;;;1.67;;
2119;SDS011;1066;52.540;13.420;2022-09-02T01:44:18;1.80;;;1.60;;
2119;SDS011;1066;52.540;13.420;2022-09-02T01:46:44;1.77;;;1.60;;
2119;SDS011;1066;52.540;13.420;2022-09-02T01:49:09;2.60;;;1.50;;
2119;SDS011;1066;52.540;13.420;2022-09-02T01:51:35;3.77;;;1.87;;
2119;SDS011;1066;52.540;13.420;2022-09-02T01:54:00;1.63;;;1.40;;
2119;SDS011;1066;52.540;13.420;2022-09-02T01:56:26;2.30;;;1.33;;
2119;SDS011;1066;52.540;13.420;2022-09-02T01:58:51;1.50;;;1.30;;
2119;SDS011;1066;52.540;13.420;2022-09-02T02:01:17;1.80;;;1.50;;
2119;SDS011;1066;52.540;13.420;2022-09-02T02:03:42;2.87;;;1.50;;
2119;SDS011;1066;52.540;13.420;2022-09-02T02:06:11;2.07;;;1.47;;
2119;SDS011;1066;52.540;13.420;2022-09-02T02:08:38;1.23;;;1.10;;
2119;SDS011;1066;52.540;13.420;2022-09-02T02:11:04;1.60;;;1.50;;
2119;SDS011;1066;52.540;13.420;2022-09-02T02:13:30;2.03;;;1.50;;
2119;SDS011;1066;52.540;13.420;2022-09-02T02:15:55;1.67;;;1.30;;
2119;SDS011;1066;52.540;13.420;2022-09-02T02:18:21;2.90;;;1.80;;
2119;SDS011;1066;52.540;13.420;2022-09-02T02:20:52;1.53;;;1.43;;
2119;SDS011;1066;52.540;13.420;2022-09-02T02:23:18;2.80;;;1.57;;
2119;SDS011;1066;52.540;13.420;2022-09-02T02:25:43;3.23;;;1.77;;
2119;SDS011;1066;52.540;13.420;2022-09-02T02:28:09;2.20;;;1.80;;
2119;SDS011;1066;52.540;13.420;2022-09-02T02:30:34;3.00;;;1.93;;
2119;SDS011;1066;52.540;13.420;2022-09-02T02:33:00;5.53;;;1.60;;
2119;SDS011;1066;52.540;13.420;2022-09-02T02:35:25;3.60;;;1.80;;
2119;SDS011;1066;52.540;13.420;2022-09-02T02:37:51;2.13;;;1.57;;
2119;SDS011;1066;52.540;13.420;2022-09-02T02:40:18;2.10;;;1.90;;
2119;SDS011;1066;52.540;13.420;2022-09-02T02:42:46;1.40;;;1.23;;
2119;SDS011;1066;52.540;13.420;2022-09-02T02:45:11;2.27;;;1.70;;
2119;SDS011;1066;52.540;13.420;2022-09-02T02:47:40;2.00;;;1.80;;
2119;SDS011;1066;52.540;13.420;2022-09-02T02:50:08;2.40;;;2.00;;
2119;SDS011;1066;52.540;13.420;2022-09-02T02:52:35;2.37;;;1.90;;
2119;SDS011;1066;52.540;13.420;2022-09-02T02:55:01;1.70;;;1.60;;
2119;SDS011;1066;52.540;13.420;2022-09-02T02:57:27;2.03;;;1.70;;
2119;SDS011;1066;52.540;13.420;2022-09-02T02:59:53;1.80;;;1.47;;
2119;SDS011;1066;52.540;13.420;2022-09-02T03:02:18;2.53;;;1.60;;
2119;SDS011;1066;52.540;13.420;2022-09-02T03:04:44;2.50;;;1.90;;
2119;SDS011;1066;52.540;13.420;2022-09-02T03:07:09;2.93;;;1.90;;
2119;SDS011;1066;52.540;13.420;2022-09-02T03:09:35;3.10;;;1.70;;
2119;SDS011;1066;52.540;13.420;2022-09-02T03:12:00;3.23;;;1.90;;
2119;SDS011;1066;52.540;13.420;2022-09-02T03:14:26;2.50;;;1.83;;
2119;SDS011;1066;52.540;13.420;2022-09-02T03:16:52;2.10;;;1.90;;
2119;SDS011;1066;52.540;13.420;2022-09-02T03:19:17;2.47;;;1.50;;
2119;SDS011;1066;52.540;13.420;2022-09-02T03:21:42;1.90;;;1.60;;
2119;SDS011;1066;52.540;13.420;2022-09-02T03:24:11;2.30;;;2.10;;
2119;SDS011;1066;52.540;13.420;2022-09-02T03:26:37;1.80;;;1.70;;
2119;SDS011;1066;52.540;13.420;2022-09-02T03:29:05;1.63;;;1.50;;
2119;SDS011;1066;52.540;13.420;2022-09-02T03:31:33;2.80;;;2.20;;
2119;SDS011;1066;52.540;13.420;2022-09-02T03:33:58;2.80;;;2.10;;
2119;SDS011;1066;52.540;13.420;2022-09-02T03:36:26;3.10;;;1.90;;
2119;SDS011;1066;52.540;13.420;2022-09-02T03:38:51;2.17;;;1.70;;
2119;SDS011;1066;52.540;13.420;2022-09-02T03:41:17;2.50;;;2.30;;
2119;SDS011;1066;52.540;13.420;2022-09-02T03:43:43;2.07;;;1.70;;
2119;SDS011;1066;52.540;13.420;2022-09-02T03:46:08;1.50;;;1.40;;
2119;SDS011;1066;52.540;13.420;2022-09-02T03:48:34;2.53;;;1.70;;
2119;SDS011;1066;52.540;13.420;2022-09-02T03:51:00;3.27;;;1.97;;
2119;SDS011;1066;52.540;13.420;2022-09-02T03:53:25;1.60;;;1.50;;
2119;SDS011;1066;52.540;13.420;2022-09-02T03:55:51;3.60;;;2.00;;
2119;SDS011;1066;52.540;13.420;2022-09-02T03:58:16;1.70;;;1.57;;
2119;SDS011;1066;52.540;13.420;2022-09-02T04:00:42;5.30;;;2.33;;
2119;SDS011;1066;52.540;13.420;2022-09-02T04:03:08;2.60;;;1.70;;
2119;SDS011;1066;52.540;13.420;2022-09-02T04:05:33;2.20;;;2.00;;
2119;SDS011;1066;52.540;13.420;2022-09-02T04:07:58;2.23;;;1.50;;
2119;SDS011;1066;52.540;13.420;2022-09-02T04:10:24;2.37;;;2.17;;
2119;SDS011;1066;52.540;13.420;2022-09-02T04:12:50;5.23;;;1.77;;
2119;SDS011;1066;52.540;13.420;2022-09-02T04:15:16;5.63;;;2.00;;
2119;SDS011;1066;52.540;13.420;2022-09-02T04:17:43;2.00;;;1.87;;
2119;SDS011;1066;52.540;13.420;2022-09-02T04:20:10;4.40;;;2.43;;
2119;SDS011;1066;52.540;13.420;2022-09-02T04:22:36;2.30;;;2.07;;
2119;SDS011;1066;52.540;13.420;2022-09-02T04:25:02;1.87;;;1.70;;
2119;SDS011;1066;52.540;13.420;2022-09-02T04:27:28;3.03;;;2.00;;
2119;SDS011;1066;52.540;13.420;2022-09-02T04:29:53;3.63;;;2.07;;
2119;SDS011;1066;52.540;13.420;2022-09-02T04:32:20;3.07;;;1.97;;
2119;SDS011;1066;52.540;13.420;2022-09-02T04:34:45;2.10;;;1.83;;
2119;SDS011;1066;52.540;13.420;2022-09-02T04:37:11;2.13;;;1.93;;
2119;SDS011;1066;52.540;13.420;2022-09-02T04:39:37;3.23;;;2.00;;
2119;SDS011;1066;52.540;13.420;2022-09-02T04:42:03;2.03;;;1.63;;
2119;SDS011;1066;52.540;13.420;2022-09-02T04:44:28;3.13;;;2.80;;
2119;SDS011;1066;52.540;13.420;2022-09-02T04:46:54;2.80;;;2.30;;
2119;SDS011;1066;52.540;13.420;2022-09-02T04:49:19;3.20;;;2.10;;
2119;SDS011;1066;52.540;13.420;2022-09-02T04:51:45;2.53;;;2.23;;
2119;SDS011;1066;52.540;13.420;2022-09-02T04:54:10;2.90;;;2.30;;
2119;SDS011;1066;52.540;13.420;2022-09-02T04:56:36;5.10;;;1.80;;
2119;SDS011;1066;52.540;13.420;2022-09-02T04:59:02;2.43;;;2.20;;
2119;SDS011;1066;52.540;13.420;2022-09-02T05:01:30;3.23;;;2.40;;
2119;SDS011;1066;52.540;13.420;2022-09-02T05:03:57;1.93;;;1.77;;
2119;SDS011;1066;52.540;13.420;2022-09-02T05:06:24;3.47;;;1.97;;
2119;SDS011;1066;52.540;13.420;2022-09-02T05:08:51;2.17;;;1.97;;
2119;SDS011;1066;52.540;13.420;2022-09-02T05:11:20;2.17;;;1.80;;
2119;SDS011;1066;52.540;13.420;2022-09-02T05:13:48;2.63;;;1.87;;
2119;SDS011;1066;52.540;13.420;2022-09-02T05:16:19;3.47;;;2.10;;
2119;SDS011;1066;52.540;13.420;2022-09-02T05:18:46;2.30;;;2.00;;
2119;SDS011;1066;52.540;13.420;2022-09-02T05:21:12;2.57;;;1.93;;
2119;SDS011;1066;52.540;13.420;2022-09-02T05:23:39;3.13;;;2.10;;
2119;SDS011;1066;52.540;13.420;2022-09-02T05:26:05;2.13;;;1.83;;
2119;SDS011;1066;52.540;13.420;2022-09-02T05:28:32;2.00;;;1.80;;
2119;SDS011;1066;52.540;13.420;2022-09-02T05:31:17;2.33;;;2.00;;
2119;SDS011;1066;52.540;13.420;2022-09-02T05:33:43;2.87;;;2.50;;
2119;SDS011;1066;52.540;13.420;2022-09-02T05:36:13;4.10;;;2.20;;
2119;SDS011;1066;52.540;13.420;2022-09-02T05:38:41;2.77;;;2.20;;
2119;SDS011;1066;52.540;13.420;2022-09-02T05:41:08;3.07;;;2.00;;
2119;SDS011;1066;52.540;13.420;2022-09-02T05:43:37;3.60;;;2.50;;
2119;SDS011;1066;52.540;13.420;2022-09-02T05:46:04;3.50;;;2.23;;
2119;SDS011;1066;52.540;13.420;2022-09-02T05:48:31;4.07;;;2.40;;
2119;SDS011;1066;52.540;13.420;2022-09-02T05:51:16;3.00;;;2.30;;
2119;SDS011;1066;52.540;13.420;2022-09-02T05:53:41;2.27;;;2.07;;
2119;SDS011;1066;52.540;13.420;2022-09-02T05:56:07;3.30;;;2.10;;
2119;SDS011;1066;52.540;13.420;2022-09-02T05:58:32;4.83;;;3.10;;
2119;SDS011;1066;52.540;13.420;2022-09-02T06:00:58;3.57;;;2.63;;
2119;SDS011;1066;52.540;13.420;2022-09-02T06:03:23;4.03;;;2.30;;
2119;SDS011;1066;52.540;13.420;2022-09-02T06:05:55;4.40;;;2.40;;
2119;SDS011;1066;52.540;13.420;2022-09-02T06:08:22;3.20;;;2.60;;
2119;SDS011;1066;52.540;13.420;2022-09-02T06:10:48;3.07;;;2.27;;
2119;SDS011;1066;52.540;13.420;2022-09-02T06:13:13;3.00;;;2.10;;
2119;SDS011;1066;52.540;13.420;2022-09-02T06:15:42;3.13;;;2.20;;
2119;SDS011;1066;52.540;13.420;2022-09-02T06:18:08;3.53;;;2.13;;
2119;SDS011;1066;52.540;13.420;2022-09-02T06:20:38;4.10;;;2.30;;
2119;SDS011;1066;52.540;13.420;2022-09-02T06:23:04;4.00;;;2.70;;
2119;SDS011;1066;52.540;13.420;2022-09-02T06:25:30;7.00;;;2.57;;
2119;SDS011;1066;52.540;13.420;2022-09-02T06:27:55;3.10;;;2.27;;
2119;SDS011;1066;52.540;13.420;2022-09-02T06:30:20;3.93;;;2.10;;
2119;SDS011;1066;52.540;13.420;2022-09-02T06:32:46;4.93;;;2.60;;
2119;SDS011;1066;52.540;13.420;2022-09-02T06:35:11;3.90;;;2.83;;
2119;SDS011;1066;52.540;13.420;2022-09-02T06:37:38;3.23;;;2.53;;
2119;SDS011;1066;52.540;13.420;2022-09-02T06:40:03;3.20;;;2.70;;
2119;SDS011;1066;52.540;13.420;2022-09-02T06:42:29;3.47;;;2.40;;
2119;SDS011;1066;52.540;13.420;2022-09-02T06:44:54;3.63;;;2.77;;
2119;SDS011;1066;52.540;13.420;2022-09-02T06:47:20;3.37;;;2.87;;
2119;SDS011;1066;52.540;13.420;2022-09-02T06:49:45;4.40;;;2.70;;
2119;SDS011;1066;52.540;13.420;2022-09-02T06:52:11;5.77;;;3.30;;
2119;SDS011;1066;52.540;13.420;2022-09-02T06:54:37;5.00;;;3.20;;
2119;SDS011;1066;52.540;13.420;2022-09-02T06:57:03;4.63;;;3.20;;
2119;SDS011;1066;52.540;13.420;2022-09-02T06:59:28;3.20;;;2.70;;
2119;SDS011;1066;52.540;13.420;2022-09-02T07:01:53;4.27;;;2.60;;
2119;SDS011;1066;52.540;13.420;2022-09-02T07:04:19;2.73;;;2.53;;
2119;SDS011;1066;52.540;13.420;2022-09-02T07:07:03;3.80;;;2.63;;
2119;SDS011;1066;52.540;13.420;2022-09-02T07:09:30;4.70;;;2.50;;
2119;SDS011;1066;52.540;13.420;2022-09-02T07:11:56;3.17;;;2.83;;
2119;SDS011;1066;52.540;13.420;2022-09-02T07:14:23;2.60;;;2.20;;
2119;SDS011;1066;52.540;13.420;2022-09-02T07:16:49;4.23;;;2.50;;
2119;SDS011;1066;52.540;13.420;2022-09-02T07:19:16;4.43;;;2.17;;
2119;SDS011;1066;52.540;13.420;2022-09-02T07:21:42;6.40;;;2.40;;
2119;SDS011;1066;52.540;13.420;2022-09-02T07:24:08;3.50;;;2.93;;
2119;SDS011;1066;52.540;13.420;2022-09-02T07:26:35;3.47;;;3.03;;
2119;SDS011;1066;52.540;13.420;2022-09-02T07:29:01;2.80;;;2.40;;
2119;SDS011;1066;52.540;13.420;2022-09-02T07:31:26;3.10;;;2.33;;
2119;SDS011;1066;52.540;13.420;2022-09-02T07:33:53;2.73;;;2.00;;
2119;SDS011;1066;52.540;13.420;2022-09-02T07:36:22;3.77;;;2.50;;
2119;SDS011;1066;52.540;13.420;2022-09-02T07:38:49;4.13;;;3.23;;
2119;SDS011;1066;52.540;13.420;2022-09-02T07:41:14;5.03;;;3.07;;
2119;SDS011;1066;52.540;13.420;2022-09-02T07:43:40;4.20;;;3.20;;
2119;SDS011;1066;52.540;13.420;2022-09-02T07:46:06;4.43;;;2.47;;
2119;SDS011;1066;52.540;13.420;2022-09-02T07:48:32;14.10;;;10.83;;
2119;SDS011;1066;52.540;13.420;2022-09-02T07:50:57;6.00;;;4.07;;
2119;SDS011;1066;52.540;13.420;2022-09-02T07:53:23;14.93;;;13.27;;
2119;SDS011;1066;52.540;13.420;2022-09-02T07:55:49;24.03;;;21.90;;
2119;SDS011;1066;52.540;13.420;2022-09-02T07:58:16;5.60;;;3.50;;
2119;SDS011;1066;52.540;13.420;2022-09-02T08:00:43;7.40;;;4.73;;
2119;SDS011;1066;52.540;13.420;2022-09-02T08:03:09;14.47;;;10.67;;
2119;SDS011;1066;52.540;13.420;2022-09-02T08:05:35;17.77;;;14.07;;
2119;SDS011;1066;52.540;13.420;2022-09-02T08:08:02;17.00;;;15.50;;
2119;SDS011;1066;52.540;13.420;2022-09-02T08:10:29;4.60;;;3.10;;
2119;SDS011;1066;52.540;13.420;2022-09-02T08:12:55;7.10;;;5.67;;
2119;SDS011;1066;52.540;13.420;2022-09-02T08:15:22;4.23;;;3.23;;
2119;SDS011;1066;52.540;13.420;2022-09-02T08:17:48;7.77;;;6.37;;
2119;SDS011;1066;52.540;13.420;2022-09-02T08:20:14;6.23;;;5.53;;
2119;SDS011;1066;52.540;13.420;2022-09-02T08:22:41;5.27;;;4.77;;
2119;SDS011;1066;52.540;13.420;2022-09-02T08:25:07;7.63;;;6.20;;
2119;SDS011;1066;52.540;13.420;2022-09-02T08:27:34;9.03;;;5.83;;
2119;SDS011;1066;52.540;13.420;2022-09-02T08:30:00;10.67;;;9.53;;
2119;SDS011;1066;52.540;13.420;2022-09-02T08:32:27;4.10;;;3.70;;
2119;SDS011;1066;52.540;13.420;2022-09-02T08:34:53;4.90;;;3.10;;
2119;SDS011;1066;52.540;13.420;2022-09-02T08:37:18;7.37;;;6.27;;
2119;SDS011;1066;52.540;13.420;2022-09-02T08:39:46;26.27;;;21.50;;
2119;SDS011;1066;52.540;13.420;2022-09-02T08:42:22;13.23;;;12.00;;
2119;SDS011;1066;52.540;13.420;2022-09-02T08:44:50;10.97;;;9.73;;
2119;SDS011;1066;52.540;13.420;2022-09-02T08:47:20;10.60;;;8.80;;
2119;SDS011;1066;52.540;13.420;2022-09-02T08:49:49;6.43;;;5.80;;
2119;SDS011;1066;52.540;13.420;2022-09-02T08:52:25;23.73;;;21.43;;
2119;SDS011;1066;52.540;13.420;2022-09-02T08:54:54;10.17;;;9.17;;
2119;SDS011;1066;52.540;13.420;2022-09-02T08:57:20;6.60;;;6.00;;
2119;SDS011;1066;52.540;13.420;2022-09-02T08:59:50;6.73;;;5.00;;
2119;SDS011;1066;52.540;13.420;2022-09-02T09:02:34;10.50;;;9.50;;
2119;SDS011;1066;52.540;13.420;2022-09-02T09:10:39;8.40;;;7.60;;
2119;SDS011;1066;52.540;13.420;2022-09-02T09:18:23;4.30;;;3.90;;
2119;SDS011;1066;52.540;13.420;2022-09-02T09:21:06;3.83;;;2.43;;
2119;SDS011;1066;52.540;13.420;2022-09-02T09:23:33;3.50;;;1.80;;
2119;SDS011;1066;52.540;13.420;2022-09-02T09:26:05;9.10;;;2.50;;
2119;SDS011;1066;52.540;13.420;2022-09-02T09:28:38;1.80;;;1.70;;
2119;SDS011;1066;52.540;13.420;2022-09-02T09:31:09;2.87;;;2.30;;
2119;SDS011;1066;52.540;13.420;2022-09-02T09:33:37;2.90;;;1.90;;
2119;SDS011;1066;52.540;13.420;2022-09-02T09:36:02;3.40;;;1.87;;
2119;SDS011;1066;52.540;13.420;2022-09-02T09:38:30;2.77;;;1.97;;
2119;SDS011;1066;52.540;13.420;2022-09-02T09:41:13;3.03;;;1.73;;
2119;SDS011;1066;52.540;13.420;2022-09-02T09:43:42;2.27;;;1.93;;
2119;SDS011;1066;52.540;13.420;2022-09-02T09:46:24;2.17;;;1.97;;
2119;SDS011;1066;52.540;13.420;2022-09-02T09:48:51;3.03;;;2.73;;
2119;SDS011;1066;52.540;13.420;2022-09-02T09:51:17;2.63;;;2.03;;
2119;SDS011;1066;52.540;13.420;2022-09-02T09:53:43;2.00;;;1.80;;
2119;SDS011;1066;52.540;13.420;2022-09-02T10:01:12;1.90;;;1.70;;
2119;SDS011;1066;52.540;13.420;2022-09-02T10:03:42;1.80;;;1.63;;
2119;SDS011;1066;52.540;13.420;2022-09-02T10:06:18;3.13;;;1.90;;
2119;SDS011;1066;52.540;13.420;2022-09-02T10:08:50;1.67;;;1.50;;
2119;SDS011;1066;52.540;13.420;2022-09-02T10:11:22;2.40;;;1.80;;
2119;SDS011;1066;52.540;13.420;2022-09-02T10:13:53;2.40;;;1.80;;
2119;SDS011;1066;52.540;13.420;2022-09-02T10:21:28;1.50;;;1.30;;
2119;SDS011;1066;52.540;13.420;2022-09-02T10:26:45;2.00;;;1.20;;
2119;SDS011;1066;52.540;13.420;2022-09-02T10:34:33;7.63;;;2.80;;
2119;SDS011;1066;52.540;13.420;2022-09-02T10:37:18;6.77;;;5.10;;
2119;SDS011;1066;52.540;13.420;2022-09-02T10:47:39;4.47;;;3.93;;
2119;SDS011;1066;52.540;13.420;2022-09-02T10:50:21;3.40;;;3.10;;
2119;SDS011;1066;52.540;13.420;2022-09-02T10:53:07;3.13;;;2.77;;
2119;SDS011;1066;52.540;13.420;2022-09-02T10:55:58;3.07;;;2.70;;
2119;SDS011;1066;52.540;13.420;2022-09-02T10:58:40;3.80;;;2.60;;
2119;SDS011;1066;52.540;13.420;2022-09-02T11:01:21;1.70;;;1.47;;
2119;SDS011;1066;52.540;13.420;2022-09-02T11:06:56;2.03;;;1.53;;
2119;SDS011;1066;52.540;13.420;2022-09-02T11:09:25;2.53;;;1.60;;
2119;SDS011;1066;52.540;13.420;2022-09-02T11:12:09;2.90;;;1.40;;
2119;SDS011;1066;52.540;13.420;2022-09-02T11:14:39;3.63;;;1.47;;
2119;SDS011;1066;52.540;13.420;2022-09-02T11:17:12;2.03;;;1.60;;
2119;SDS011;1066;52.540;13.420;2022-09-02T11:19:58;7.93;;;2.40;;
2119;SDS011;1066;52.540;13.420;2022-09-02T11:23:00;3.90;;;2.47;;
2119;SDS011;1066;52.540;13.420;2022-09-02T11:25:40;5.87;;;5.37;;
2119;SDS011;1066;52.540;13.420;2022-09-02T11:34:50;4.73;;;3.43;;
2119;SDS011;1066;52.540;13.420;2022-09-02T11:37:05;3.97;;;3.03;;
2119;SDS011;1066;52.540;13.420;2022-09-02T11:45:09;4.90;;;2.10;;
2119;SDS011;1066;52.540;13.420;2022-09-02T11:47:44;2.80;;;1.60;;
2119;SDS011;1066;52.540;13.420;2022-09-02T11:50:20;2.07;;;1.73;;
2119;SDS011;1066;52.540;13.420;2022-09-02T11:55:54;2.03;;;1.83;;
2119;SDS011;1066;52.540;13.420;2022-09-02T11:58:37;3.10;;;2.30;;
2119;SDS011;1066;52.540;13.420;2022-09-02T12:01:16;3.90;;;1.80;;
2119;SDS011;1066;52.540;13.420;2022-09-02T12:06:28;2.80;;;2.17;;
2119;SDS011;1066;52.540;13.420;2022-09-02T12:11:33;2.57;;;2.03;;
2119;SDS011;1066;52.540;13.420;2022-09-02T12:17:02;1.93;;;1.67;;
2119;SDS011;1066;52.540;13.420;2022-09-02T12:25:00;1.93;;;1.73;;
2119;SDS011;1066;52.540;13.420;2022-09-02T12:27:28;1.73;;;1.63;;
2119;SDS011;1066;52.540;13.420;2022-09-02T12:29:56;2.15;;;1.58;;
2119;SDS011;1066;52.540;13.420;2022-09-02T12:35:11;1.80;;;1.70;;
2119;SDS011;1066;52.540;13.420;2022-09-02T12:40:23;2.38;;;1.70;;
2119;SDS011;1066;52.540;13.420;2022-09-02T12:42:51;3.17;;;2.88;;
2119;SDS011;1066;52.540;13.420;2022-09-02T12:45:24;4.22;;;3.78;;
2119;SDS011;1066;52.540;13.420;2022-09-02T12:50:56;3.57;;;2.07;;
2119;SDS011;1066;52.540;13.420;2022-09-02T12:55:52;1.90;;;1.80;;
2119;SDS011;1066;52.540;13.420;2022-09-02T12:58:21;2.43;;;1.73;;
2119;SDS011;1066;52.540;13.420;2022-09-02T13:06:05;2.00;;;1.80;;
2119;SDS011;1066;52.540;13.420;2022-09-02T13:23:15;2.00;;;1.50;;
2119;SDS011;1066;52.540;13.420;2022-09-02T13:31:20;1.73;;;1.40;;
2119;SDS011;1066;52.540;13.420;2022-09-02T13:33:59;4.13;;;2.17;;
2119;SDS011;1066;52.540;13.420;2022-09-02T13:36:27;4.70;;;1.77;;
2119;SDS011;1066;52.540;13.420;2022-09-02T13:39:14;1.93;;;1.57;;
2119;SDS011;1066;52.540;13.420;2022-09-02T13:41:40;2.77;;;1.70;;
2119;SDS011;1066;52.540;13.420;2022-09-02T13:44:09;2.07;;;1.50;;
2119;SDS011;1066;52.540;13.420;2022-09-02T13:46:46;3.20;;;1.80;;
2119;SDS011;1066;52.540;13.420;2022-09-02T13:52:04;2.43;;;1.70;;
2119;SDS011;1066;52.540;13.420;2022-09-02T13:54:33;2.17;;;1.40;;
2119;SDS011;1066;52.540;13.420;2022-09-02T13:57:01;2.87;;;2.57;;
2119;SDS011;1066;52.540;13.420;2022-09-02T13:59:35;2.60;;;2.30;;
2119;SDS011;1066;52.540;13.420;2022-09-02T14:05:21;3.10;;;2.00;;
2119;SDS011;1066;52.540;13.420;2022-09-02T14:08:10;1.87;;;1.67;;
2119;SDS011;1066;52.540;13.420;2022-09-02T14:10:33;2.23;;;1.90;;
2119;SDS011;1066;52.540;13.420;2022-09-02T14:13:00;1.97;;;1.70;;
2119;SDS011;1066;52.540;13.420;2022-09-02T14:15:28;2.13;;;1.93;;
2119;SDS011;1066;52.540;13.420;2022-09-02T14:20:51;2.70;;;1.87;;
2119;SDS011;1066;52.540;13.420;2022-09-02T14:23:18;1.53;;;1.43;;
2119;SDS011;1066;52.540;13.420;2022-09-02T14:25:51;3.70;;;2.17;;
2119;SDS011;1066;52.540;13.420;2022-09-02T14:28:27;2.13;;;1.57;;
2119;SDS011;1066;52.540;13.420;2022-09-02T14:38:48;1.83;;;1.67;;
2119;SDS011;1066;52.540;13.420;2022-09-02T14:43:50;1.90;;;1.80;;
2119;SDS011;1066;52.540;13.420;2022-09-02T14:46:52;2.93;;;1.90;;
2119;SDS011;1066;52.540;13.420;2022-09-02T14:52:01;1.60;;;1.50;;
2119;SDS011;1066;52.540;13.420;2022-09-02T14:54:41;2.53;;;1.53;;
2119;SDS011;1066;52.540;13.420;2022-09-02T14:57:22;4.23;;;1.27;;
2119;SDS011;1066;52.540;13.420;2022-09-02T14:59:48;1.73;;;1.47;;
2119;SDS011;1066;52.540;13.420;2022-09-02T15:04:52;1.83;;;1.50;;
2119;SDS011;1066;52.540;13.420;2022-09-02T15:07:18;2.60;;;1.37;;
2119;SDS011;1066;52.540;13.420;2022-09-02T15:09:44;3.80;;;1.80;;
2119;SDS011;1066;52.540;13.420;2022-09-02T15:12:12;2.60;;;1.83;;
2119;SDS011;1066;52.540;13.420;2022-09-02T15:14:38;2.47;;;2.27;;
2119;SDS011;1066;52.540;13.420;2022-09-02T15:17:05;1.93;;;1.50;;
2119;SDS011;1066;52.540;13.420;2022-09-02T15:19:33;2.23;;;1.60;;
2119;SDS011;1066;52.540;13.420;2022-09-02T15:21:58;3.40;;;1.60;;
2119;SDS011;1066;52.540;13.420;2022-09-02T15:24:23;2.40;;;1.50;;
2119;SDS011;1066;52.540;13.420;2022-09-02T15:26:50;2.00;;;1.70;;
2119;SDS011;1066;52.540;13.420;2022-09-02T15:29:15;1.87;;;1.67;;
2119;SDS011;1066;52.540;13.420;2022-09-02T15:31:43;1.97;;;1.20;;
2119;SDS011;1066;52.540;13.420;2022-09-02T15:34:08;1.70;;;1.40;;
2119;SDS011;1066;52.540;13.420;2022-09-02T15:36:34;2.50;;;1.40;;
2119;SDS011;1066;52.540;13.420;2022-09-02T15:38:59;2.13;;;1.50;;
2119;SDS011;1066;52.540;13.420;2022-09-02T15:41:25;2.67;;;1.47;;
2119;SDS011;1066;52.540;13.420;2022-09-02T15:43:51;1.80;;;1.33;;
2119;SDS011;1066;52.540;13.420;2022-09-02T15:46:19;1.17;;;1.07;;
2119;SDS011;1066;52.540;13.420;2022-09-02T15:48:47;4.03;;;1.90;;
2119;SDS011;1066;52.540;13.420;2022-09-02T15:51:13;2.50;;;1.50;;
2119;SDS011;1066;52.540;13.420;2022-09-02T15:53:40;2.23;;;1.97;;
2119;SDS011;1066;52.540;13.420;2022-09-02T15:56:19;3.03;;;1.53;;
2119;SDS011;1066;52.540;13.420;2022-09-02T15:58:46;3.20;;;1.80;;
2119;SDS011;1066;52.540;13.420;2022-09-02T16:01:12;3.40;;;1.60;;
2119;SDS011;1066;52.540;13.420;2022-09-02T16:03:38;2.27;;;1.60;;
2119;SDS011;1066;52.540;13.420;2022-09-02T16:06:04;2.40;;;1.73;;
2119;SDS011;1066;52.540;13.420;2022-09-02T16:08:32;3.13;;;2.40;;
2119;SDS011;1066;52.540;13.420;2022-09-02T16:11:01;3.10;;;1.93;;
2119;SDS011;1066;52.540;13.420;2022-09-02T16:13:28;2.60;;;1.63;;
2119;SDS011;1066;52.540;13.420;2022-09-02T16:16:00;1.70;;;1.30;;
2119;SDS011;1066;52.540;13.420;2022-09-02T16:18:27;2.27;;;1.83;;
2119;SDS011;1066;52.540;13.420;2022-09-02T16:20:52;3.10;;;2.80;;
2119;SDS011;1066;52.540;13.420;2022-09-02T16:23:17;4.00;;;1.90;;
2119;SDS011;1066;52.540;13.420;2022-09-02T16:25:43;3.93;;;1.63;;
2119;SDS011;1066;52.540;13.420;2022-09-02T16:28:08;3.17;;;1.83;;
2119;SDS011;1066;52.540;13.420;2022-09-02T16:30:33;4.60;;;4.10;;
2119;SDS011;1066;52.540;13.420;2022-09-02T16:32:59;2.70;;;2.43;;
2119;SDS011;1066;52.540;13.420;2022-09-02T16:35:24;3.50;;;2.90;;
2119;SDS011;1066;52.540;13.420;2022-09-02T16:37:50;3.60;;;2.60;;
2119;SDS011;1066;52.540;13.420;2022-09-02T16:40:16;10.13;;;7.53;;
2119;SDS011;1066;52.540;13.420;2022-09-02T16:42:45;5.47;;;4.70;;
2119;SDS011;1066;52.540;13.420;2022-09-02T16:45:11;4.63;;;4.03;;
2119;SDS011;1066;52.540;13.420;2022-09-02T16:47:36;3.80;;;2.50;;
2119;SDS011;1066;52.540;13.420;2022-09-02T16:50:02;3.10;;;2.77;;
2119;SDS011;1066;52.540;13.420;2022-09-02T16:52:27;3.50;;;3.10;;
2119;SDS011;1066;52.540;13.420;2022-09-02T16:54:53;4.20;;;2.40;;
2119;SDS011;1066;52.540;13.420;2022-09-02T16:57:18;3.67;;;3.17;;
2119;SDS011;1066;52.540;13.420;2022-09-02T16:59:44;5.17;;;4.27;;
2119;SDS011;1066;52.540;13.420;2022-09-02T17:02:09;8.90;;;7.20;;
2119;SDS011;1066;52.540;13.420;2022-09-02T17:04:35;4.00;;;3.40;;
2119;SDS011;1066;52.540;13.420;2022-09-02T17:07:00;3.10;;;2.77;;
2119;SDS011;1066;52.540;13.420;2022-09-02T17:09:25;3.77;;;2.37;;
2119;SDS011;1066;52.540;13.420;2022-09-02T17:11:51;2.30;;;1.80;;
2119;SDS011;1066;52.540;13.420;2022-09-02T17:14:16;2.13;;;1.70;;
2119;SDS011;1066;52.540;13.420;2022-09-02T17:16:43;6.50;;;3.13;;
2119;SDS011;1066;52.540;13.420;2022-09-02T17:19:10;6.30;;;3.30;;